sensor_id;sensor_type;location;lat;lon;timestamp;P1;durP1;ratioP1;P2;durP2;ratioP2
67665;SDS011;54448;51.472;-2.574;2023-04-07T00:00:19;10.48;;;2.60;;
67665;SDS011;54448;51.472;-2.574;2023-04-07T00:02:44;14.25;;;4.90;;
67665;SDS011;54448;51.472;-2.574;2023-04-07T00:05:10;17.23;;;4.70;;
67665;SDS011;54448;51.472;-2.574;2023-04-07T00:07:36;19.60;;;4.18;;
67665;SDS011;54448;51.472;-2.574;2023-04-07T00:10:01;10.10;;;3.17;;
67665;SDS011;54448;51.472;-2.574;2023-04-07T00:12:27;9.32;;;3.35;;
67665;SDS011;54448;51.472;-2.574;2023-04-07T00:14:52;18.42;;;5.43;;
67665;SDS011;54448;51.472;-2.574;2023-04-07T00:17:18;23.00;;;6.65;;
67665;SDS011;54448;51.472;-2.574;2023-04-07T00:19:43;18.85;;;5.90;;
67665;SDS011;54448;51.472;-2.574;2023-04-07T00:22:08;12.10;;;3.50;;
67665;SDS011;54448;51.472;-2.574;2023-04-07T00:24:34;9.25;;;3.33;;
67665;SDS011;54448;51.472;-2.574;2023-04-07T00:26:59;19.98;;;4.00;;
67665;SDS011;54448;51.472;-2.574;2023-04-07T00:29:25;16.13;;;3.85;;
67665;SDS011;54448;51.472;-2.574;2023-04-07T00:31:50;14.05;;;4.32;;
67665;SDS011;54448;51.472;-2.574;2023-04-07T00:34:16;17.40;;;4.30;;
67665;SDS011;54448;51.472;-2.574;2023-04-07T00:36:41;13.75;;;4.45;;
67665;SDS011;54448;51.472;-2.574;2023-04-07T00:39:07;13.13;;;4.45;;
67665;SDS011;54448;51.472;-2.574;2023-04-07T00:41:35;11.40;;;3.95;;
67665;SDS011;54448;51.472;-2.574;2023-04-07T00:44:01;10.52;;;3.17;;
67665;SDS011;54448;51.472;-2.574;2023-04-07T00:46:26;11.93;;;3.47;;
67665;SDS011;54448;51.472;-2.574;2023-04-07T00:48:52;23.98;;;4.10;;
67665;SDS011;54448;51.472;-2.574;2023-04-07T00:51:20;9.32;;;3.70;;
67665;SDS011;54448;51.472;-2.574;2023-04-07T00:53:46;13.20;;;3.83;;
67665;SDS011;54448;51.472;-2.574;2023-04-07T00:56:12;18.45;;;4.50;;
67665;SDS011;54448;51.472;-2.574;2023-04-07T00:58:38;15.18;;;4.75;;
67665;SDS011;54448;51.472;-2.574;2023-04-07T01:01:06;9.00;;;3.22;;
67665;SDS011;54448;51.472;-2.574;2023-04-07T01:03:34;25.13;;;4.55;;
67665;SDS011;54448;51.472;-2.574;2023-04-07T01:06:04;11.52;;;2.90;;
67665;SDS011;54448;51.472;-2.574;2023-04-07T01:11:07;11.73;;;2.90;;
67665;SDS011;54448;51.472;-2.574;2023-04-07T01:16:26;12.23;;;2.90;;
67665;SDS011;54448;51.472;-2.574;2023-04-07T01:18:54;5.95;;;2.65;;
67665;SDS011;54448;51.472;-2.574;2023-04-07T01:21:21;10.07;;;2.58;;
67665;SDS011;54448;51.472;-2.574;2023-04-07T01:23:57;9.45;;;2.60;;
67665;SDS011;54448;51.472;-2.574;2023-04-07T01:26:28;12.05;;;3.20;;
67665;SDS011;54448;51.472;-2.574;2023-04-07T01:28:56;11.50;;;2.78;;
67665;SDS011;54448;51.472;-2.574;2023-04-07T01:31:43;13.57;;;2.83;;
67665;SDS011;54448;51.472;-2.574;2023-04-07T01:34:10;8.23;;;2.60;;
67665;SDS011;54448;51.472;-2.574;2023-04-07T01:36:36;8.75;;;2.60;;
67665;SDS011;54448;51.472;-2.574;2023-04-07T01:39:02;5.65;;;2.55;;
67665;SDS011;54448;51.472;-2.574;2023-04-07T01:41:28;11.18;;;2.75;;
67665;SDS011;54448;51.472;-2.574;2023-04-07T01:43:54;14.55;;;2.67;;
67665;SDS011;54448;51.472;-2.574;2023-04-07T01:46:19;6.60;;;2.58;;
67665;SDS011;54448;51.472;-2.574;2023-04-07T01:48:46;5.40;;;2.55;;
67665;SDS011;54448;51.472;-2.574;2023-04-07T01:51:12;6.75;;;2.38;;
67665;SDS011;54448;51.472;-2.574;2023-04-07T01:53:41;15.77;;;2.58;;
67665;SDS011;54448;51.472;-2.574;2023-04-07T01:56:07;12.15;;;2.88;;
67665;SDS011;54448;51.472;-2.574;2023-04-07T01:58:32;12.65;;;2.72;;
67665;SDS011;54448;51.472;-2.574;2023-04-07T02:00:57;10.30;;;3.05;;
67665;SDS011;54448;51.472;-2.574;2023-04-07T02:03:27;11.05;;;2.83;;
67665;SDS011;54448;51.472;-2.574;2023-04-07T02:06:16;8.95;;;2.10;;
67665;SDS011;54448;51.472;-2.574;2023-04-07T02:08:45;14.23;;;2.63;;
67665;SDS011;54448;51.472;-2.574;2023-04-07T02:11:13;7.63;;;2.40;;
67665;SDS011;54448;51.472;-2.574;2023-04-07T02:13:40;13.27;;;3.80;;
67665;SDS011;54448;51.472;-2.574;2023-04-07T02:16:07;12.02;;;3.63;;
67665;SDS011;54448;51.472;-2.574;2023-04-07T02:18:33;14.88;;;3.20;;
67665;SDS011;54448;51.472;-2.574;2023-04-07T02:20:59;14.50;;;3.65;;
67665;SDS011;54448;51.472;-2.574;2023-04-07T02:23:26;8.93;;;2.45;;
67665;SDS011;54448;51.472;-2.574;2023-04-07T02:25:54;10.27;;;2.38;;
67665;SDS011;54448;51.472;-2.574;2023-04-07T02:28:20;10.75;;;2.55;;
67665;SDS011;54448;51.472;-2.574;2023-04-07T02:30:45;14.82;;;2.92;;
67665;SDS011;54448;51.472;-2.574;2023-04-07T02:33:11;13.02;;;2.38;;
67665;SDS011;54448;51.472;-2.574;2023-04-07T02:35:36;11.60;;;2.17;;
67665;SDS011;54448;51.472;-2.574;2023-04-07T02:38:01;9.35;;;2.60;;
67665;SDS011;54448;51.472;-2.574;2023-04-07T02:40:27;7.55;;;2.28;;
67665;SDS011;54448;51.472;-2.574;2023-04-07T02:42:52;15.40;;;2.63;;
67665;SDS011;54448;51.472;-2.574;2023-04-07T02:45:17;8.13;;;2.42;;
67665;SDS011;54448;51.472;-2.574;2023-04-07T02:47:43;9.85;;;2.70;;
67665;SDS011;54448;51.472;-2.574;2023-04-07T02:50:08;13.13;;;3.38;;
67665;SDS011;54448;51.472;-2.574;2023-04-07T02:52:34;7.43;;;2.38;;
67665;SDS011;54448;51.472;-2.574;2023-04-07T02:54:59;6.97;;;2.25;;
67665;SDS011;54448;51.472;-2.574;2023-04-07T02:57:25;10.70;;;2.58;;
67665;SDS011;54448;51.472;-2.574;2023-04-07T02:59:50;10.40;;;2.30;;
67665;SDS011;54448;51.472;-2.574;2023-04-07T03:02:15;9.50;;;2.40;;
67665;SDS011;54448;51.472;-2.574;2023-04-07T03:04:41;8.80;;;2.83;;
67665;SDS011;54448;51.472;-2.574;2023-04-07T03:07:06;5.68;;;2.30;;
67665;SDS011;54448;51.472;-2.574;2023-04-07T03:09:31;10.18;;;2.28;;
67665;SDS011;54448;51.472;-2.574;2023-04-07T03:11:57;10.07;;;2.60;;
67665;SDS011;54448;51.472;-2.574;2023-04-07T03:14:22;7.25;;;2.30;;
67665;SDS011;54448;51.472;-2.574;2023-04-07T03:16:47;11.80;;;2.78;;
67665;SDS011;54448;51.472;-2.574;2023-04-07T03:19:13;10.13;;;2.10;;
67665;SDS011;54448;51.472;-2.574;2023-04-07T03:21:38;12.13;;;2.60;;
67665;SDS011;54448;51.472;-2.574;2023-04-07T03:24:04;12.52;;;2.22;;
67665;SDS011;54448;51.472;-2.574;2023-04-07T03:26:30;9.00;;;2.13;;
67665;SDS011;54448;51.472;-2.574;2023-04-07T03:28:56;8.38;;;2.17;;
67665;SDS011;54448;51.472;-2.574;2023-04-07T03:31:21;8.38;;;2.30;;
67665;SDS011;54448;51.472;-2.574;2023-04-07T03:33:47;8.32;;;2.53;;
67665;SDS011;54448;51.472;-2.574;2023-04-07T03:36:13;11.98;;;2.50;;
67665;SDS011;54448;51.472;-2.574;2023-04-07T03:38:39;9.95;;;2.47;;
67665;SDS011;54448;51.472;-2.574;2023-04-07T03:41:04;8.48;;;2.70;;
67665;SDS011;54448;51.472;-2.574;2023-04-07T03:43:29;8.98;;;2.58;;
67665;SDS011;54448;51.472;-2.574;2023-04-07T03:45:55;12.13;;;2.95;;
67665;SDS011;54448;51.472;-2.574;2023-04-07T03:48:20;11.60;;;2.90;;
67665;SDS011;54448;51.472;-2.574;2023-04-07T03:50:46;9.20;;;2.80;;
67665;SDS011;54448;51.472;-2.574;2023-04-07T03:53:11;9.77;;;3.00;;
67665;SDS011;54448;51.472;-2.574;2023-04-07T03:55:39;8.95;;;3.08;;
67665;SDS011;54448;51.472;-2.574;2023-04-07T03:58:04;10.93;;;3.72;;
67665;SDS011;54448;51.472;-2.574;2023-04-07T04:00:30;7.32;;;3.28;;
67665;SDS011;54448;51.472;-2.574;2023-04-07T04:02:57;8.73;;;3.42;;
67665;SDS011;54448;51.472;-2.574;2023-04-07T04:05:23;7.75;;;3.05;;
67665;SDS011;54448;51.472;-2.574;2023-04-07T04:07:48;6.38;;;2.63;;
67665;SDS011;54448;51.472;-2.574;2023-04-07T04:10:15;10.63;;;2.90;;
67665;SDS011;54448;51.472;-2.574;2023-04-07T04:12:40;12.95;;;2.90;;
67665;SDS011;54448;51.472;-2.574;2023-04-07T04:15:06;7.18;;;2.70;;
67665;SDS011;54448;51.472;-2.574;2023-04-07T04:17:32;6.40;;;2.67;;
67665;SDS011;54448;51.472;-2.574;2023-04-07T04:19:57;13.52;;;3.38;;
67665;SDS011;54448;51.472;-2.574;2023-04-07T04:22:22;8.32;;;3.13;;
67665;SDS011;54448;51.472;-2.574;2023-04-07T04:24:48;10.07;;;3.38;;
67665;SDS011;54448;51.472;-2.574;2023-04-07T04:27:13;12.93;;;3.95;;
67665;SDS011;54448;51.472;-2.574;2023-04-07T04:29:38;16.77;;;4.05;;
67665;SDS011;54448;51.472;-2.574;2023-04-07T04:32:04;14.43;;;4.00;;
67665;SDS011;54448;51.472;-2.574;2023-04-07T04:34:29;9.60;;;3.85;;
67665;SDS011;54448;51.472;-2.574;2023-04-07T04:36:54;9.82;;;3.88;;
67665;SDS011;54448;51.472;-2.574;2023-04-07T04:39:20;13.73;;;3.50;;
67665;SDS011;54448;51.472;-2.574;2023-04-07T04:41:45;13.50;;;3.58;;
67665;SDS011;54448;51.472;-2.574;2023-04-07T04:44:10;11.95;;;3.78;;
67665;SDS011;54448;51.472;-2.574;2023-04-07T04:46:36;16.30;;;4.00;;
67665;SDS011;54448;51.472;-2.574;2023-04-07T04:49:01;14.57;;;4.70;;
67665;SDS011;54448;51.472;-2.574;2023-04-07T04:51:27;16.25;;;5.35;;
67665;SDS011;54448;51.472;-2.574;2023-04-07T04:53:52;17.42;;;5.50;;
67665;SDS011;54448;51.472;-2.574;2023-04-07T04:56:17;13.27;;;4.10;;
67665;SDS011;54448;51.472;-2.574;2023-04-07T04:58:43;15.75;;;4.15;;
67665;SDS011;54448;51.472;-2.574;2023-04-07T05:01:13;12.07;;;3.53;;
67665;SDS011;54448;51.472;-2.574;2023-04-07T05:03:38;12.10;;;3.88;;
67665;SDS011;54448;51.472;-2.574;2023-04-07T05:06:04;12.88;;;3.88;;
67665;SDS011;54448;51.472;-2.574;2023-04-07T05:08:30;16.17;;;4.78;;
67665;SDS011;54448;51.472;-2.574;2023-04-07T05:10:55;13.40;;;3.92;;
67665;SDS011;54448;51.472;-2.574;2023-04-07T05:13:21;13.13;;;4.55;;
67665;SDS011;54448;51.472;-2.574;2023-04-07T05:15:46;15.80;;;5.28;;
67665;SDS011;54448;51.472;-2.574;2023-04-07T05:18:12;12.23;;;4.95;;
67665;SDS011;54448;51.472;-2.574;2023-04-07T05:20:37;12.82;;;4.78;;
67665;SDS011;54448;51.472;-2.574;2023-04-07T05:23:04;14.45;;;5.70;;
67665;SDS011;54448;51.472;-2.574;2023-04-07T05:25:29;15.75;;;5.32;;
67665;SDS011;54448;51.472;-2.574;2023-04-07T05:27:56;17.30;;;4.18;;
67665;SDS011;54448;51.472;-2.574;2023-04-07T05:30:22;16.98;;;4.38;;
67665;SDS011;54448;51.472;-2.574;2023-04-07T05:32:47;10.13;;;3.97;;
67665;SDS011;54448;51.472;-2.574;2023-04-07T05:35:13;12.23;;;4.47;;
67665;SDS011;54448;51.472;-2.574;2023-04-07T05:37:38;16.85;;;4.45;;
67665;SDS011;54448;51.472;-2.574;2023-04-07T05:40:04;14.85;;;4.00;;
67665;SDS011;54448;51.472;-2.574;2023-04-07T05:42:30;12.90;;;3.78;;
67665;SDS011;54448;51.472;-2.574;2023-04-07T05:44:56;12.05;;;3.85;;
67665;SDS011;54448;51.472;-2.574;2023-04-07T05:47:21;10.18;;;3.58;;
67665;SDS011;54448;51.472;-2.574;2023-04-07T05:49:46;9.77;;;4.00;;
67665;SDS011;54448;51.472;-2.574;2023-04-07T05:52:12;23.40;;;4.45;;
67665;SDS011;54448;51.472;-2.574;2023-04-07T05:54:37;11.93;;;4.10;;
67665;SDS011;54448;51.472;-2.574;2023-04-07T05:57:06;11.60;;;4.22;;
67665;SDS011;54448;51.472;-2.574;2023-04-07T05:59:32;14.75;;;3.95;;
67665;SDS011;54448;51.472;-2.574;2023-04-07T06:01:58;13.52;;;4.43;;
67665;SDS011;54448;51.472;-2.574;2023-04-07T06:04:23;10.00;;;3.78;;
67665;SDS011;54448;51.472;-2.574;2023-04-07T06:06:48;9.35;;;4.20;;
67665;SDS011;54448;51.472;-2.574;2023-04-07T06:09:14;13.90;;;4.10;;
67665;SDS011;54448;51.472;-2.574;2023-04-07T06:11:39;11.63;;;4.28;;
67665;SDS011;54448;51.472;-2.574;2023-04-07T06:14:05;13.93;;;4.55;;
67665;SDS011;54448;51.472;-2.574;2023-04-07T06:16:30;12.57;;;4.10;;
67665;SDS011;54448;51.472;-2.574;2023-04-07T06:18:55;17.42;;;4.13;;
67665;SDS011;54448;51.472;-2.574;2023-04-07T06:21:21;9.38;;;4.55;;
67665;SDS011;54448;51.472;-2.574;2023-04-07T06:23:46;10.00;;;4.32;;
67665;SDS011;54448;51.472;-2.574;2023-04-07T06:26:12;18.85;;;4.90;;
67665;SDS011;54448;51.472;-2.574;2023-04-07T06:28:37;13.43;;;4.78;;
67665;SDS011;54448;51.472;-2.574;2023-04-07T06:31:03;15.60;;;5.30;;
67665;SDS011;54448;51.472;-2.574;2023-04-07T06:33:29;18.95;;;6.93;;
67665;SDS011;54448;51.472;-2.574;2023-04-07T06:35:54;20.35;;;6.70;;
67665;SDS011;54448;51.472;-2.574;2023-04-07T06:38:20;20.77;;;6.55;;
67665;SDS011;54448;51.472;-2.574;2023-04-07T06:40:46;22.15;;;6.30;;
67665;SDS011;54448;51.472;-2.574;2023-04-07T06:43:11;16.13;;;6.38;;
67665;SDS011;54448;51.472;-2.574;2023-04-07T06:45:36;20.10;;;6.60;;
67665;SDS011;54448;51.472;-2.574;2023-04-07T06:48:02;18.83;;;6.30;;
67665;SDS011;54448;51.472;-2.574;2023-04-07T06:50:27;14.07;;;5.57;;
67665;SDS011;54448;51.472;-2.574;2023-04-07T06:52:53;11.88;;;4.93;;
67665;SDS011;54448;51.472;-2.574;2023-04-07T06:55:18;12.40;;;4.15;;
67665;SDS011;54448;51.472;-2.574;2023-04-07T06:57:43;14.90;;;4.18;;
67665;SDS011;54448;51.472;-2.574;2023-04-07T07:00:09;10.57;;;3.85;;
67665;SDS011;54448;51.472;-2.574;2023-04-07T07:02:35;13.95;;;4.00;;
67665;SDS011;54448;51.472;-2.574;2023-04-07T07:05:01;18.58;;;4.25;;
67665;SDS011;54448;51.472;-2.574;2023-04-07T07:07:28;12.68;;;4.28;;
67665;SDS011;54448;51.472;-2.574;2023-04-07T07:09:54;9.70;;;3.33;;
67665;SDS011;54448;51.472;-2.574;2023-04-07T07:12:19;11.82;;;3.40;;
67665;SDS011;54448;51.472;-2.574;2023-04-07T07:14:44;10.15;;;3.28;;
67665;SDS011;54448;51.472;-2.574;2023-04-07T07:17:10;11.48;;;3.78;;
67665;SDS011;54448;51.472;-2.574;2023-04-07T07:19:35;13.32;;;3.38;;
67665;SDS011;54448;51.472;-2.574;2023-04-07T07:22:01;9.48;;;3.50;;
67665;SDS011;54448;51.472;-2.574;2023-04-07T07:24:28;8.85;;;3.00;;
67665;SDS011;54448;51.472;-2.574;2023-04-07T07:26:53;8.85;;;3.03;;
67665;SDS011;54448;51.472;-2.574;2023-04-07T07:29:19;13.10;;;3.50;;
67665;SDS011;54448;51.472;-2.574;2023-04-07T07:31:44;7.22;;;3.65;;
67665;SDS011;54448;51.472;-2.574;2023-04-07T07:34:10;11.15;;;2.53;;
67665;SDS011;54448;51.472;-2.574;2023-04-07T07:36:38;17.88;;;3.38;;
67665;SDS011;54448;51.472;-2.574;2023-04-07T07:39:04;6.43;;;3.03;;
67665;SDS011;54448;51.472;-2.574;2023-04-07T07:41:30;13.30;;;3.35;;
67665;SDS011;54448;51.472;-2.574;2023-04-07T07:43:55;11.93;;;3.65;;
67665;SDS011;54448;51.472;-2.574;2023-04-07T07:46:20;14.13;;;3.33;;
67665;SDS011;54448;51.472;-2.574;2023-04-07T07:48:48;12.32;;;3.22;;
67665;SDS011;54448;51.472;-2.574;2023-04-07T07:51:13;6.85;;;2.97;;
67665;SDS011;54448;51.472;-2.574;2023-04-07T07:53:39;7.82;;;3.20;;
67665;SDS011;54448;51.472;-2.574;2023-04-07T07:56:05;12.15;;;3.35;;
67665;SDS011;54448;51.472;-2.574;2023-04-07T07:58:30;8.63;;;2.95;;
67665;SDS011;54448;51.472;-2.574;2023-04-07T08:00:55;9.40;;;2.80;;
67665;SDS011;54448;51.472;-2.574;2023-04-07T08:03:21;9.77;;;3.10;;
67665;SDS011;54448;51.472;-2.574;2023-04-07T08:05:47;10.10;;;2.80;;
67665;SDS011;54448;51.472;-2.574;2023-04-07T08:08:13;9.20;;;2.80;;
67665;SDS011;54448;51.472;-2.574;2023-04-07T08:10:38;10.88;;;3.30;;
67665;SDS011;54448;51.472;-2.574;2023-04-07T08:13:03;7.85;;;2.97;;
67665;SDS011;54448;51.472;-2.574;2023-04-07T08:15:29;10.00;;;3.42;;
67665;SDS011;54448;51.472;-2.574;2023-04-07T08:17:55;9.40;;;2.80;;
67665;SDS011;54448;51.472;-2.574;2023-04-07T08:20:20;12.70;;;3.00;;
67665;SDS011;54448;51.472;-2.574;2023-04-07T08:22:47;10.50;;;2.60;;
67665;SDS011;54448;51.472;-2.574;2023-04-07T08:25:12;9.57;;;2.00;;
67665;SDS011;54448;51.472;-2.574;2023-04-07T08:27:38;8.40;;;1.40;;
67665;SDS011;54448;51.472;-2.574;2023-04-07T08:30:04;6.88;;;1.27;;
67665;SDS011;54448;51.472;-2.574;2023-04-07T08:32:36;11.85;;;1.27;;
67665;SDS011;54448;51.472;-2.574;2023-04-07T08:35:05;4.80;;;0.70;;
67665;SDS011;54448;51.472;-2.574;2023-04-07T08:37:31;11.10;;;1.00;;
67665;SDS011;54448;51.472;-2.574;2023-04-07T08:39:57;6.97;;;0.93;;
67665;SDS011;54448;51.472;-2.574;2023-04-07T08:42:24;12.88;;;1.38;;
67665;SDS011;54448;51.472;-2.574;2023-04-07T08:44:51;6.90;;;1.27;;
67665;SDS011;54448;51.472;-2.574;2023-04-07T08:47:18;4.25;;;1.00;;
67665;SDS011;54448;51.472;-2.574;2023-04-07T08:49:44;6.88;;;1.15;;
67665;SDS011;54448;51.472;-2.574;2023-04-07T08:52:11;6.78;;;1.35;;
67665;SDS011;54448;51.472;-2.574;2023-04-07T08:54:39;6.22;;;1.20;;
67665;SDS011;54448;51.472;-2.574;2023-04-07T08:57:06;6.15;;;1.00;;
67665;SDS011;54448;51.472;-2.574;2023-04-07T08:59:32;5.75;;;1.10;;
67665;SDS011;54448;51.472;-2.574;2023-04-07T09:01:59;8.63;;;1.35;;
67665;SDS011;54448;51.472;-2.574;2023-04-07T09:04:24;6.40;;;1.20;;
67665;SDS011;54448;51.472;-2.574;2023-04-07T09:06:51;5.00;;;1.20;;
67665;SDS011;54448;51.472;-2.574;2023-04-07T09:09:17;6.25;;;0.90;;
67665;SDS011;54448;51.472;-2.574;2023-04-07T09:11:42;4.38;;;1.02;;
67665;SDS011;54448;51.472;-2.574;2023-04-07T09:14:07;5.63;;;1.02;;
67665;SDS011;54448;51.472;-2.574;2023-04-07T09:16:33;5.53;;;1.00;;
67665;SDS011;54448;51.472;-2.574;2023-04-07T09:18:58;5.80;;;1.30;;
67665;SDS011;54448;51.472;-2.574;2023-04-07T09:21:24;7.60;;;1.10;;
67665;SDS011;54448;51.472;-2.574;2023-04-07T09:23:49;6.30;;;1.23;;
67665;SDS011;54448;51.472;-2.574;2023-04-07T09:28:59;9.25;;;1.52;;
67665;SDS011;54448;51.472;-2.574;2023-04-07T09:31:42;10.00;;;1.30;;
67665;SDS011;54448;51.472;-2.574;2023-04-07T09:34:25;8.25;;;1.10;;
67665;SDS011;54448;51.472;-2.574;2023-04-07T09:36:57;5.82;;;1.00;;
67665;SDS011;54448;51.472;-2.574;2023-04-07T09:39:23;3.92;;;0.82;;
67665;SDS011;54448;51.472;-2.574;2023-04-07T09:41:49;9.30;;;1.50;;
67665;SDS011;54448;51.472;-2.574;2023-04-07T09:44:16;14.85;;;1.92;;
67665;SDS011;54448;51.472;-2.574;2023-04-07T09:46:51;6.13;;;1.05;;
67665;SDS011;54448;51.472;-2.574;2023-04-07T09:49:21;3.53;;;0.77;;
67665;SDS011;54448;51.472;-2.574;2023-04-07T09:52:06;4.53;;;1.33;;
67665;SDS011;54448;51.472;-2.574;2023-04-07T09:54:38;12.75;;;1.33;;
67665;SDS011;54448;51.472;-2.574;2023-04-07T09:57:05;6.03;;;1.10;;
67665;SDS011;54448;51.472;-2.574;2023-04-07T09:59:32;6.22;;;1.20;;
67665;SDS011;54448;51.472;-2.574;2023-04-07T10:01:59;5.15;;;1.17;;
67665;SDS011;54448;51.472;-2.574;2023-04-07T10:04:25;7.15;;;1.27;;
67665;SDS011;54448;51.472;-2.574;2023-04-07T10:06:51;6.82;;;1.65;;
67665;SDS011;54448;51.472;-2.574;2023-04-07T10:09:18;8.45;;;0.95;;
67665;SDS011;54448;51.472;-2.574;2023-04-07T10:11:44;6.93;;;0.90;;
67665;SDS011;54448;51.472;-2.574;2023-04-07T10:14:10;3.40;;;0.80;;
67665;SDS011;54448;51.472;-2.574;2023-04-07T10:16:39;5.55;;;0.75;;
67665;SDS011;54448;51.472;-2.574;2023-04-07T10:19:06;11.77;;;1.42;;
67665;SDS011;54448;51.472;-2.574;2023-04-07T10:21:37;5.30;;;1.00;;
67665;SDS011;54448;51.472;-2.574;2023-04-07T10:24:08;6.43;;;1.35;;
67665;SDS011;54448;51.472;-2.574;2023-04-07T10:26:52;10.38;;;1.58;;
67665;SDS011;54448;51.472;-2.574;2023-04-07T10:29:19;8.88;;;1.35;;
67665;SDS011;54448;51.472;-2.574;2023-04-07T10:31:45;7.97;;;0.93;;
67665;SDS011;54448;51.472;-2.574;2023-04-07T10:34:10;6.53;;;1.30;;
67665;SDS011;54448;51.472;-2.574;2023-04-07T10:37:07;8.15;;;1.10;;
67665;SDS011;54448;51.472;-2.574;2023-04-07T10:39:38;10.35;;;0.90;;
67665;SDS011;54448;51.472;-2.574;2023-04-07T10:42:04;6.45;;;0.70;;
67665;SDS011;54448;51.472;-2.574;2023-04-07T10:47:07;4.00;;;0.73;;
67665;SDS011;54448;51.472;-2.574;2023-04-07T10:49:32;5.53;;;0.73;;
67665;SDS011;54448;51.472;-2.574;2023-04-07T10:54:36;7.80;;;1.05;;
67665;SDS011;54448;51.472;-2.574;2023-04-07T11:04:42;6.47;;;1.25;;
67665;SDS011;54448;51.472;-2.574;2023-04-07T11:07:09;7.05;;;1.45;;
67665;SDS011;54448;51.472;-2.574;2023-04-07T11:09:35;10.13;;;1.05;;
67665;SDS011;54448;51.472;-2.574;2023-04-07T11:12:01;6.47;;;0.90;;
67665;SDS011;54448;51.472;-2.574;2023-04-07T11:14:27;7.63;;;0.98;;
67665;SDS011;54448;51.472;-2.574;2023-04-07T11:16:57;6.05;;;0.93;;
67665;SDS011;54448;51.472;-2.574;2023-04-07T11:19:23;12.23;;;1.17;;
67665;SDS011;54448;51.472;-2.574;2023-04-07T11:21:48;8.98;;;1.10;;
67665;SDS011;54448;51.472;-2.574;2023-04-07T11:26:58;12.65;;;1.33;;
67665;SDS011;54448;51.472;-2.574;2023-04-07T11:29:27;4.18;;;1.13;;
67665;SDS011;54448;51.472;-2.574;2023-04-07T11:31:53;10.52;;;2.00;;
67665;SDS011;54448;51.472;-2.574;2023-04-07T11:34:19;7.75;;;1.38;;
67665;SDS011;54448;51.472;-2.574;2023-04-07T11:36:45;8.23;;;1.00;;
67665;SDS011;54448;51.472;-2.574;2023-04-07T11:39:18;5.70;;;1.15;;
67665;SDS011;54448;51.472;-2.574;2023-04-07T11:41:45;5.38;;;1.42;;
67665;SDS011;54448;51.472;-2.574;2023-04-07T11:44:12;6.13;;;1.05;;
67665;SDS011;54448;51.472;-2.574;2023-04-07T11:49:42;4.22;;;0.80;;
67665;SDS011;54448;51.472;-2.574;2023-04-07T11:52:09;3.63;;;1.00;;
67665;SDS011;54448;51.472;-2.574;2023-04-07T11:54:38;12.95;;;1.65;;
67665;SDS011;54448;51.472;-2.574;2023-04-07T11:57:05;4.85;;;0.60;;
67665;SDS011;54448;51.472;-2.574;2023-04-07T11:59:30;1.23;;;0.43;;
67665;SDS011;54448;51.472;-2.574;2023-04-07T12:01:56;3.15;;;0.90;;
67665;SDS011;54448;51.472;-2.574;2023-04-07T12:04:22;2.88;;;0.60;;
67665;SDS011;54448;51.472;-2.574;2023-04-07T12:06:47;2.70;;;0.90;;
67665;SDS011;54448;51.472;-2.574;2023-04-07T12:09:26;3.75;;;0.50;;
67665;SDS011;54448;51.472;-2.574;2023-04-07T12:11:53;4.88;;;0.88;;
67665;SDS011;54448;51.472;-2.574;2023-04-07T12:14:18;3.35;;;0.75;;
67665;SDS011;54448;51.472;-2.574;2023-04-07T12:16:44;1.80;;;0.47;;
67665;SDS011;54448;51.472;-2.574;2023-04-07T12:19:09;3.42;;;0.80;;
67665;SDS011;54448;51.472;-2.574;2023-04-07T12:21:35;3.70;;;0.60;;
67665;SDS011;54448;51.472;-2.574;2023-04-07T12:24:00;3.55;;;0.80;;
67665;SDS011;54448;51.472;-2.574;2023-04-07T12:26:26;3.28;;;0.68;;
67665;SDS011;54448;51.472;-2.574;2023-04-07T12:28:52;3.28;;;0.70;;
67665;SDS011;54448;51.472;-2.574;2023-04-07T12:31:17;1.98;;;0.60;;
67665;SDS011;54448;51.472;-2.574;2023-04-07T12:33:43;2.78;;;0.60;;
67665;SDS011;54448;51.472;-2.574;2023-04-07T12:36:08;1.33;;;0.52;;
67665;SDS011;54448;51.472;-2.574;2023-04-07T12:38:34;2.65;;;0.70;;
67665;SDS011;54448;51.472;-2.574;2023-04-07T12:40:59;7.80;;;1.10;;
67665;SDS011;54448;51.472;-2.574;2023-04-07T12:43:28;2.30;;;0.70;;
67665;SDS011;54448;51.472;-2.574;2023-04-07T12:45:54;1.92;;;0.50;;
67665;SDS011;54448;51.472;-2.574;2023-04-07T12:48:19;2.88;;;0.73;;
67665;SDS011;54448;51.472;-2.574;2023-04-07T12:50:45;3.47;;;0.90;;
67665;SDS011;54448;51.472;-2.574;2023-04-07T12:53:10;2.85;;;0.60;;
67665;SDS011;54448;51.472;-2.574;2023-04-07T12:55:36;1.15;;;0.82;;
67665;SDS011;54448;51.472;-2.574;2023-04-07T12:58:01;0.75;;;0.35;;
67665;SDS011;54448;51.472;-2.574;2023-04-07T13:00:27;2.63;;;0.52;;
67665;SDS011;54448;51.472;-2.574;2023-04-07T13:02:52;4.60;;;0.60;;
67665;SDS011;54448;51.472;-2.574;2023-04-07T13:05:18;5.85;;;0.77;;
67665;SDS011;54448;51.472;-2.574;2023-04-07T13:07:43;1.08;;;0.50;;
67665;SDS011;54448;51.472;-2.574;2023-04-07T13:10:09;1.40;;;0.30;;
67665;SDS011;54448;51.472;-2.574;2023-04-07T13:12:35;2.72;;;0.70;;
67665;SDS011;54448;51.472;-2.574;2023-04-07T13:15:00;0.98;;;0.32;;
67665;SDS011;54448;51.472;-2.574;2023-04-07T13:17:26;1.35;;;0.45;;
67665;SDS011;54448;51.472;-2.574;2023-04-07T13:19:52;0.80;;;0.55;;
67665;SDS011;54448;51.472;-2.574;2023-04-07T13:22:18;0.88;;;0.43;;
67665;SDS011;54448;51.472;-2.574;2023-04-07T13:24:43;3.95;;;0.70;;
67665;SDS011;54448;51.472;-2.574;2023-04-07T13:27:09;1.83;;;0.50;;
67665;SDS011;54448;51.472;-2.574;2023-04-07T13:29:34;3.22;;;0.60;;
67665;SDS011;54448;51.472;-2.574;2023-04-07T13:32:04;3.38;;;0.57;;
67665;SDS011;54448;51.472;-2.574;2023-04-07T13:34:35;1.73;;;0.45;;
67665;SDS011;54448;51.472;-2.574;2023-04-07T13:37:01;1.45;;;0.43;;
67665;SDS011;54448;51.472;-2.574;2023-04-07T13:39:27;2.60;;;0.47;;
67665;SDS011;54448;51.472;-2.574;2023-04-07T13:41:53;3.08;;;0.70;;
67665;SDS011;54448;51.472;-2.574;2023-04-07T13:44:19;1.85;;;0.60;;
67665;SDS011;54448;51.472;-2.574;2023-04-07T13:46:44;2.97;;;0.60;;
67665;SDS011;54448;51.472;-2.574;2023-04-07T13:49:10;2.00;;;0.65;;
67665;SDS011;54448;51.472;-2.574;2023-04-07T13:51:35;1.95;;;0.40;;
67665;SDS011;54448;51.472;-2.574;2023-04-07T13:54:01;2.30;;;0.50;;
67665;SDS011;54448;51.472;-2.574;2023-04-07T13:56:27;1.08;;;0.60;;
67665;SDS011;54448;51.472;-2.574;2023-04-07T13:58:52;1.75;;;0.43;;
67665;SDS011;54448;51.472;-2.574;2023-04-07T14:01:18;1.45;;;0.50;;
67665;SDS011;54448;51.472;-2.574;2023-04-07T14:03:43;1.13;;;0.40;;
67665;SDS011;54448;51.472;-2.574;2023-04-07T14:06:09;1.17;;;0.40;;
67665;SDS011;54448;51.472;-2.574;2023-04-07T14:08:34;2.83;;;0.50;;
67665;SDS011;54448;51.472;-2.574;2023-04-07T14:11:00;1.10;;;0.43;;
67665;SDS011;54448;51.472;-2.574;2023-04-07T14:13:26;1.70;;;0.50;;
67665;SDS011;54448;51.472;-2.574;2023-04-07T14:15:51;2.17;;;0.68;;
67665;SDS011;54448;51.472;-2.574;2023-04-07T14:18:17;1.65;;;0.50;;
67665;SDS011;54448;51.472;-2.574;2023-04-07T14:20:43;0.95;;;0.40;;
67665;SDS011;54448;51.472;-2.574;2023-04-07T14:23:08;2.90;;;0.60;;
67665;SDS011;54448;51.472;-2.574;2023-04-07T14:25:34;3.60;;;0.50;;
67665;SDS011;54448;51.472;-2.574;2023-04-07T14:28:00;1.08;;;0.30;;
67665;SDS011;54448;51.472;-2.574;2023-04-07T14:30:26;0.77;;;0.30;;
67665;SDS011;54448;51.472;-2.574;2023-04-07T14:32:51;3.08;;;0.40;;
67665;SDS011;54448;51.472;-2.574;2023-04-07T14:35:17;2.28;;;0.50;;
67665;SDS011;54448;51.472;-2.574;2023-04-07T14:37:42;1.70;;;0.50;;
67665;SDS011;54448;51.472;-2.574;2023-04-07T14:40:08;1.58;;;0.50;;
67665;SDS011;54448;51.472;-2.574;2023-04-07T14:42:33;2.30;;;0.38;;
67665;SDS011;54448;51.472;-2.574;2023-04-07T14:44:59;1.38;;;0.30;;
67665;SDS011;54448;51.472;-2.574;2023-04-07T14:47:26;1.65;;;0.50;;
67665;SDS011;54448;51.472;-2.574;2023-04-07T14:49:51;2.15;;;0.40;;